Terminal Aerodrome Forecast
Issued by NWS

Home | Current Version | Previous Version | Graphics & Text | Print | Product List | Glossary On
Versions: 1 2 3 4 5 6 7 8 9 10 11 12 13
000
FTUS45 KGGW 201720
TAFGDV
TAF
KGDV 201720Z 2018/2118 05006KT P6SM BKN015
     FM202000 VRB06KT P6SM FEW170
     FM211200 VRB05KT P6SM SCT020
     FM211500 15008KT P6SM SCT022=

USA.gov is the U.S. government's official web portal to all federal, state and local government web resources and services.